sensor_id;sensor_type;location;lat;lon;timestamp;pressure;altitude;pressure_sealevel;temperature;humidity
13661;BME280;6903;49.480;11.102;2022-08-02T00:00:22;98012.38;;;19.48;100.00
13661;BME280;6903;49.480;11.102;2022-08-02T00:02:47;98009.34;;;19.51;100.00
13661;BME280;6903;49.480;11.102;2022-08-02T00:05:13;98008.97;;;19.54;100.00
13661;BME280;6903;49.480;11.102;2022-08-02T00:07:39;98003.50;;;19.47;100.00
13661;BME280;6903;49.480;11.102;2022-08-02T00:10:06;98000.25;;;19.37;100.00
13661;BME280;6903;49.480;11.102;2022-08-02T00:12:31;98001.38;;;19.43;100.00
13661;BME280;6903;49.480;11.102;2022-08-02T00:14:56;98007.69;;;19.50;100.00
13661;BME280;6903;49.480;11.102;2022-08-02T00:17:22;98003.38;;;19.49;100.00
13661;BME280;6903;49.480;11.102;2022-08-02T00:19:47;98005.38;;;19.47;100.00
13661;BME280;6903;49.480;11.102;2022-08-02T00:22:13;97999.84;;;19.48;100.00
13661;BME280;6903;49.480;11.102;2022-08-02T00:24:38;97998.69;;;19.43;100.00
13661;BME280;6903;49.480;11.102;2022-08-02T00:30:26;97998.44;;;19.22;100.00
13661;BME280;6903;49.480;11.102;2022-08-02T00:32:51;98005.19;;;19.10;100.00
13661;BME280;6903;49.480;11.102;2022-08-02T00:35:16;98010.75;;;19.00;100.00
13661;BME280;6903;49.480;11.102;2022-08-02T00:37:42;98003.91;;;18.90;100.00
13661;BME280;6903;49.480;11.102;2022-08-02T00:40:08;98001.94;;;18.84;100.00
13661;BME280;6903;49.480;11.102;2022-08-02T00:42:34;98009.59;;;18.87;100.00
13661;BME280;6903;49.480;11.102;2022-08-02T00:44:59;98012.44;;;18.93;100.00
13661;BME280;6903;49.480;11.102;2022-08-02T00:47:25;98004.25;;;18.95;100.00
13661;BME280;6903;49.480;11.102;2022-08-02T00:49:50;98005.25;;;18.94;100.00
13661;BME280;6903;49.480;11.102;2022-08-02T00:52:15;98004.59;;;18.92;100.00
13661;BME280;6903;49.480;11.102;2022-08-02T00:54:41;97999.41;;;18.90;100.00
13661;BME280;6903;49.480;11.102;2022-08-02T00:57:06;98001.28;;;18.82;100.00
13661;BME280;6903;49.480;11.102;2022-08-02T00:59:32;97998.78;;;18.80;100.00
13661;BME280;6903;49.480;11.102;2022-08-02T01:01:57;98009.63;;;18.79;100.00
13661;BME280;6903;49.480;11.102;2022-08-02T01:04:22;97996.81;;;18.74;100.00
13661;BME280;6903;49.480;11.102;2022-08-02T01:06:48;97996.13;;;18.72;100.00
13661;BME280;6903;49.480;11.102;2022-08-02T01:09:13;98001.16;;;18.67;100.00
13661;BME280;6903;49.480;11.102;2022-08-02T01:11:38;97995.00;;;18.67;100.00
13661;BME280;6903;49.480;11.102;2022-08-02T01:14:07;97998.00;;;18.64;100.00
13661;BME280;6903;49.480;11.102;2022-08-02T01:16:45;97998.00;;;18.64;100.00
13661;BME280;6903;49.480;11.102;2022-08-02T01:19:42;98002.66;;;18.70;100.00
13661;BME280;6903;49.480;11.102;2022-08-02T01:25:26;98004.88;;;18.50;100.00
13661;BME280;6903;49.480;11.102;2022-08-02T01:28:34;98003.06;;;18.43;100.00
13661;BME280;6903;49.480;11.102;2022-08-02T01:31:07;98004.03;;;18.42;100.00
13661;BME280;6903;49.480;11.102;2022-08-02T01:33:41;98008.03;;;18.38;100.00
13661;BME280;6903;49.480;11.102;2022-08-02T01:36:10;98005.72;;;18.34;100.00
13661;BME280;6903;49.480;11.102;2022-08-02T01:38:39;98008.03;;;18.38;100.00
13661;BME280;6903;49.480;11.102;2022-08-02T01:41:08;97998.69;;;18.33;100.00
13661;BME280;6903;49.480;11.102;2022-08-02T01:43:37;98003.22;;;18.41;100.00
13661;BME280;6903;49.480;11.102;2022-08-02T01:46:04;98005.38;;;18.46;100.00
13661;BME280;6903;49.480;11.102;2022-08-02T01:48:33;98014.06;;;18.40;100.00
13661;BME280;6903;49.480;11.102;2022-08-02T01:50:59;98021.56;;;18.36;100.00
13661;BME280;6903;49.480;11.102;2022-08-02T01:53:28;98029.41;;;18.46;100.00
13661;BME280;6903;49.480;11.102;2022-08-02T01:55:55;98029.59;;;18.44;100.00
13661;BME280;6903;49.480;11.102;2022-08-02T01:58:24;98025.91;;;18.29;100.00
13661;BME280;6903;49.480;11.102;2022-08-02T02:00:52;98018.22;;;18.18;100.00
13661;BME280;6903;49.480;11.102;2022-08-02T02:03:21;98016.88;;;18.22;100.00
13661;BME280;6903;49.480;11.102;2022-08-02T02:05:48;98021.22;;;18.23;100.00
13661;BME280;6903;49.480;11.102;2022-08-02T02:08:15;98028.06;;;18.17;100.00
13661;BME280;6903;49.480;11.102;2022-08-02T02:10:44;98028.56;;;18.05;100.00
13661;BME280;6903;49.480;11.102;2022-08-02T02:13:16;98023.41;;;18.03;100.00
13661;BME280;6903;49.480;11.102;2022-08-02T02:15:46;98025.72;;;18.06;100.00
13661;BME280;6903;49.480;11.102;2022-08-02T02:18:17;98024.06;;;18.05;100.00
13661;BME280;6903;49.480;11.102;2022-08-02T02:20:45;98035.09;;;18.10;100.00
13661;BME280;6903;49.480;11.102;2022-08-02T02:23:11;98039.06;;;18.06;100.00
13661;BME280;6903;49.480;11.102;2022-08-02T02:25:39;98032.91;;;17.98;100.00
13661;BME280;6903;49.480;11.102;2022-08-02T02:28:08;98026.75;;;17.89;100.00
13661;BME280;6903;49.480;11.102;2022-08-02T02:30:37;98023.38;;;17.79;100.00
13661;BME280;6903;49.480;11.102;2022-08-02T02:33:05;98035.53;;;17.74;100.00
13661;BME280;6903;49.480;11.102;2022-08-02T02:35:33;98031.53;;;17.62;100.00
13661;BME280;6903;49.480;11.102;2022-08-02T02:38:02;98024.31;;;17.54;100.00
13661;BME280;6903;49.480;11.102;2022-08-02T02:40:28;98024.69;;;17.67;100.00
13661;BME280;6903;49.480;11.102;2022-08-02T02:42:55;98023.53;;;17.62;100.00
13661;BME280;6903;49.480;11.102;2022-08-02T02:45:23;98022.34;;;17.64;100.00
13661;BME280;6903;49.480;11.102;2022-08-02T02:47:49;98027.84;;;17.63;100.00
13661;BME280;6903;49.480;11.102;2022-08-02T02:50:16;98026.19;;;17.62;100.00
13661;BME280;6903;49.480;11.102;2022-08-02T02:52:42;98030.50;;;17.55;100.00
13661;BME280;6903;49.480;11.102;2022-08-02T02:55:09;98028.44;;;17.41;100.00
13661;BME280;6903;49.480;11.102;2022-08-02T02:57:36;98025.59;;;17.34;100.00
13661;BME280;6903;49.480;11.102;2022-08-02T03:00:08;98021.22;;;17.33;100.00
13661;BME280;6903;49.480;11.102;2022-08-02T03:02:36;98024.09;;;17.40;100.00
13661;BME280;6903;49.480;11.102;2022-08-02T03:05:02;98019.59;;;17.40;100.00
13661;BME280;6903;49.480;11.102;2022-08-02T03:07:28;98025.31;;;17.45;100.00
13661;BME280;6903;49.480;11.102;2022-08-02T03:09:54;98021.34;;;17.49;100.00
13661;BME280;6903;49.480;11.102;2022-08-02T03:12:20;98018.34;;;17.52;100.00
13661;BME280;6903;49.480;11.102;2022-08-02T03:14:45;98016.31;;;17.46;100.00
13661;BME280;6903;49.480;11.102;2022-08-02T03:17:11;98014.66;;;17.45;100.00
13661;BME280;6903;49.480;11.102;2022-08-02T03:19:36;98030.00;;;17.51;100.00
13661;BME280;6903;49.480;11.102;2022-08-02T03:22:02;98039.34;;;17.55;100.00
13661;BME280;6903;49.480;11.102;2022-08-02T03:24:27;98028.69;;;17.55;100.00
13661;BME280;6903;49.480;11.102;2022-08-02T03:26:52;98025.50;;;17.52;100.00
13661;BME280;6903;49.480;11.102;2022-08-02T03:29:18;98037.50;;;17.56;100.00
13661;BME280;6903;49.480;11.102;2022-08-02T03:31:44;98040.50;;;17.61;100.00
13661;BME280;6903;49.480;11.102;2022-08-02T03:34:10;98038.00;;;17.59;100.00
13661;BME280;6903;49.480;11.102;2022-08-02T03:36:37;98031.84;;;17.51;100.00
13661;BME280;6903;49.480;11.102;2022-08-02T03:39:04;98040.81;;;17.50;100.00
13661;BME280;6903;49.480;11.102;2022-08-02T03:41:32;98034.97;;;17.46;100.00
13661;BME280;6903;49.480;11.102;2022-08-02T03:43:59;98042.16;;;17.46;100.00
13661;BME280;6903;49.480;11.102;2022-08-02T03:46:25;98038.59;;;17.37;100.00
13661;BME280;6903;49.480;11.102;2022-08-02T03:48:51;98037.22;;;17.33;100.00
13661;BME280;6903;49.480;11.102;2022-08-02T03:51:18;98023.41;;;17.30;100.00
13661;BME280;6903;49.480;11.102;2022-08-02T03:53:43;98031.88;;;17.25;100.00
13661;BME280;6903;49.480;11.102;2022-08-02T03:56:09;98031.09;;;17.33;100.00
13661;BME280;6903;49.480;11.102;2022-08-02T03:58:34;98029.09;;;17.35;100.00
13661;BME280;6903;49.480;11.102;2022-08-02T04:01:00;98035.91;;;17.29;100.00
13661;BME280;6903;49.480;11.102;2022-08-02T04:03:26;98040.06;;;17.32;100.00
13661;BME280;6903;49.480;11.102;2022-08-02T04:05:51;98039.28;;;17.39;100.00
13661;BME280;6903;49.480;11.102;2022-08-02T04:08:17;98044.41;;;17.33;100.00
13661;BME280;6903;49.480;11.102;2022-08-02T04:10:43;98046.09;;;17.42;100.00
13661;BME280;6903;49.480;11.102;2022-08-02T04:13:30;98057.34;;;17.53;100.00
13661;BME280;6903;49.480;11.102;2022-08-02T04:16:01;98054.19;;;17.66;100.00
13661;BME280;6903;49.480;11.102;2022-08-02T04:18:33;98068.56;;;17.81;100.00
13661;BME280;6903;49.480;11.102;2022-08-02T04:21:01;98075.44;;;18.07;100.00
13661;BME280;6903;49.480;11.102;2022-08-02T04:23:28;98082.81;;;18.38;100.00
13661;BME280;6903;49.480;11.102;2022-08-02T04:25:55;98083.31;;;18.73;100.00
13661;BME280;6903;49.480;11.102;2022-08-02T04:28:21;98089.72;;;19.03;100.00
13661;BME280;6903;49.480;11.102;2022-08-02T04:30:48;98077.66;;;19.31;100.00
13661;BME280;6903;49.480;11.102;2022-08-02T04:33:15;98084.56;;;19.56;100.00
13661;BME280;6903;49.480;11.102;2022-08-02T04:35:41;98094.53;;;19.62;100.00
13661;BME280;6903;49.480;11.102;2022-08-02T04:38:06;98097.50;;;19.36;100.00
13661;BME280;6903;49.480;11.102;2022-08-02T04:40:32;98091.69;;;19.17;100.00
13661;BME280;6903;49.480;11.102;2022-08-02T04:42:57;98089.91;;;19.01;100.00
13661;BME280;6903;49.480;11.102;2022-08-02T04:45:23;98093.47;;;18.86;100.00
13661;BME280;6903;49.480;11.102;2022-08-02T04:47:49;98096.00;;;18.71;100.00
13661;BME280;6903;49.480;11.102;2022-08-02T04:50:14;98096.84;;;18.64;100.00
13661;BME280;6903;49.480;11.102;2022-08-02T04:52:40;98093.50;;;18.62;100.00
13661;BME280;6903;49.480;11.102;2022-08-02T04:55:05;98094.16;;;18.64;100.00
13661;BME280;6903;49.480;11.102;2022-08-02T04:57:31;98109.69;;;18.68;100.00
13661;BME280;6903;49.480;11.102;2022-08-02T05:00:14;98102.47;;;18.77;100.00
13661;BME280;6903;49.480;11.102;2022-08-02T05:02:40;98089.97;;;18.77;100.00
13661;BME280;6903;49.480;11.102;2022-08-02T05:05:06;98085.75;;;18.99;100.00
13661;BME280;6903;49.480;11.102;2022-08-02T05:07:31;98088.34;;;19.31;100.00
13661;BME280;6903;49.480;11.102;2022-08-02T05:09:56;98082.09;;;19.77;100.00
13661;BME280;6903;49.480;11.102;2022-08-02T05:12:22;98096.34;;;20.31;100.00
13661;BME280;6903;49.480;11.102;2022-08-02T05:14:48;98094.38;;;20.99;100.00
13661;BME280;6903;49.480;11.102;2022-08-02T05:17:14;98091.47;;;21.88;100.00
13661;BME280;6903;49.480;11.102;2022-08-02T05:19:39;98099.13;;;22.48;100.00
13661;BME280;6903;49.480;11.102;2022-08-02T05:22:05;98102.28;;;23.00;100.00
13661;BME280;6903;49.480;11.102;2022-08-02T05:24:30;98097.63;;;23.15;100.00
13661;BME280;6903;49.480;11.102;2022-08-02T05:26:56;98092.38;;;23.34;100.00
13661;BME280;6903;49.480;11.102;2022-08-02T05:29:21;98097.97;;;23.73;100.00
13661;BME280;6903;49.480;11.102;2022-08-02T05:31:47;98100.63;;;24.14;100.00
13661;BME280;6903;49.480;11.102;2022-08-02T05:34:12;98097.63;;;24.76;100.00
13661;BME280;6903;49.480;11.102;2022-08-02T05:36:38;98099.84;;;25.25;100.00
13661;BME280;6903;49.480;11.102;2022-08-02T05:39:03;98102.03;;;25.73;100.00
13661;BME280;6903;49.480;11.102;2022-08-02T05:41:28;98099.63;;;26.09;100.00
13661;BME280;6903;49.480;11.102;2022-08-02T05:43:54;98095.81;;;26.23;100.00
13661;BME280;6903;49.480;11.102;2022-08-02T05:46:19;98108.53;;;26.48;100.00
13661;BME280;6903;49.480;11.102;2022-08-02T05:48:44;98100.59;;;26.53;100.00
13661;BME280;6903;49.480;11.102;2022-08-02T05:51:14;98099.66;;;26.72;100.00
13661;BME280;6903;49.480;11.102;2022-08-02T05:53:50;98104.34;;;27.07;100.00
13661;BME280;6903;49.480;11.102;2022-08-02T05:56:21;98106.50;;;26.74;100.00
13661;BME280;6903;49.480;11.102;2022-08-02T06:02:19;98103.69;;;27.12;100.00
13661;BME280;6903;49.480;11.102;2022-08-02T06:07:31;98096.28;;;26.76;100.00
13661;BME280;6903;49.480;11.102;2022-08-02T06:10:00;98097.81;;;26.34;100.00
13661;BME280;6903;49.480;11.102;2022-08-02T06:12:28;98093.53;;;26.20;100.00
13661;BME280;6903;49.480;11.102;2022-08-02T06:14:56;98096.53;;;26.37;100.00
13661;BME280;6903;49.480;11.102;2022-08-02T06:17:23;98106.28;;;26.44;100.00
13661;BME280;6903;49.480;11.102;2022-08-02T06:19:49;98105.31;;;26.95;100.00
13661;BME280;6903;49.480;11.102;2022-08-02T06:22:15;98109.81;;;27.25;99.63
13661;BME280;6903;49.480;11.102;2022-08-02T06:24:44;98115.38;;;27.91;95.05
13661;BME280;6903;49.480;11.102;2022-08-02T06:27:13;98118.19;;;28.44;89.95
13661;BME280;6903;49.480;11.102;2022-08-02T06:29:42;98108.50;;;28.54;88.04
13661;BME280;6903;49.480;11.102;2022-08-02T06:32:09;98107.47;;;28.90;84.72
13661;BME280;6903;49.480;11.102;2022-08-02T06:34:38;98117.81;;;29.23;82.41
13661;BME280;6903;49.480;11.102;2022-08-02T06:37:37;98110.13;;;29.54;79.48
13661;BME280;6903;49.480;11.102;2022-08-02T06:40:05;98103.88;;;29.77;77.11
13661;BME280;6903;49.480;11.102;2022-08-02T06:42:44;98113.44;;;29.79;77.11
13661;BME280;6903;49.480;11.102;2022-08-02T06:45:11;98113.50;;;29.96;75.55
13661;BME280;6903;49.480;11.102;2022-08-02T06:47:36;98116.03;;;30.14;74.51
13661;BME280;6903;49.480;11.102;2022-08-02T06:50:02;98116.59;;;30.84;71.86
13661;BME280;6903;49.480;11.102;2022-08-02T06:52:28;98119.16;;;31.07;69.15
13661;BME280;6903;49.480;11.102;2022-08-02T06:54:59;98119.06;;;31.18;68.13
13661;BME280;6903;49.480;11.102;2022-08-02T06:57:25;98116.03;;;31.31;67.34
13661;BME280;6903;49.480;11.102;2022-08-02T06:59:51;98120.22;;;31.55;65.10
13661;BME280;6903;49.480;11.102;2022-08-02T07:02:16;98121.88;;;30.90;65.79
13661;BME280;6903;49.480;11.102;2022-08-02T07:04:41;98125.69;;;30.89;66.17
13661;BME280;6903;49.480;11.102;2022-08-02T07:07:07;98122.34;;;31.20;65.26
13661;BME280;6903;49.480;11.102;2022-08-02T07:09:32;98129.53;;;31.98;61.97
13661;BME280;6903;49.480;11.102;2022-08-02T07:11:57;98123.50;;;32.17;59.91
13661;BME280;6903;49.480;11.102;2022-08-02T07:14:23;98105.28;;;32.23;59.49
13661;BME280;6903;49.480;11.102;2022-08-02T07:16:48;98116.47;;;32.00;60.03
13661;BME280;6903;49.480;11.102;2022-08-02T07:19:13;98105.59;;;32.05;60.66
13661;BME280;6903;49.480;11.102;2022-08-02T07:21:39;98106.19;;;32.07;59.92
13661;BME280;6903;49.480;11.102;2022-08-02T07:24:04;98099.72;;;31.91;59.47
13661;BME280;6903;49.480;11.102;2022-08-02T07:26:29;98109.25;;;31.34;60.87
13661;BME280;6903;49.480;11.102;2022-08-02T07:28:55;98100.50;;;31.15;61.84
13661;BME280;6903;49.480;11.102;2022-08-02T07:31:20;98095.69;;;31.06;62.53
13661;BME280;6903;49.480;11.102;2022-08-02T07:33:45;98102.22;;;31.05;62.84
13661;BME280;6903;49.480;11.102;2022-08-02T07:36:11;98097.41;;;31.28;61.42
13661;BME280;6903;49.480;11.102;2022-08-02T07:38:36;98091.13;;;30.62;62.28
13661;BME280;6903;49.480;11.102;2022-08-02T07:41:01;98096.19;;;30.25;65.03
13661;BME280;6903;49.480;11.102;2022-08-02T07:43:27;98088.63;;;30.43;64.50
13661;BME280;6903;49.480;11.102;2022-08-02T07:45:52;98087.78;;;30.43;64.13
13661;BME280;6903;49.480;11.102;2022-08-02T07:48:17;98095.16;;;30.42;64.34
13661;BME280;6903;49.480;11.102;2022-08-02T07:50:43;98084.09;;;30.66;63.45
13661;BME280;6903;49.480;11.102;2022-08-02T07:53:08;98088.53;;;31.16;62.29
13661;BME280;6903;49.480;11.102;2022-08-02T07:55:33;98089.44;;;31.98;60.31
13661;BME280;6903;49.480;11.102;2022-08-02T07:57:59;98103.78;;;32.37;58.18
13661;BME280;6903;49.480;11.102;2022-08-02T08:00:24;98088.44;;;32.52;57.78
13661;BME280;6903;49.480;11.102;2022-08-02T08:02:49;98096.16;;;33.24;55.61
13661;BME280;6903;49.480;11.102;2022-08-02T08:05:15;98089.41;;;33.36;54.06
13661;BME280;6903;49.480;11.102;2022-08-02T08:07:40;98099.41;;;33.52;52.92
13661;BME280;6903;49.480;11.102;2022-08-02T08:10:06;98094.28;;;33.71;52.28
13661;BME280;6903;49.480;11.102;2022-08-02T08:12:32;98085.78;;;33.67;52.03
13661;BME280;6903;49.480;11.102;2022-08-02T08:14:57;98098.19;;;34.47;50.04
13661;BME280;6903;49.480;11.102;2022-08-02T08:17:23;98105.94;;;34.90;48.58
13661;BME280;6903;49.480;11.102;2022-08-02T08:19:48;98095.19;;;34.73;47.43
13661;BME280;6903;49.480;11.102;2022-08-02T08:22:13;98103.97;;;34.65;46.79
13661;BME280;6903;49.480;11.102;2022-08-02T08:24:39;98101.41;;;34.33;47.13
13661;BME280;6903;49.480;11.102;2022-08-02T08:27:04;98096.56;;;34.61;46.66
13661;BME280;6903;49.480;11.102;2022-08-02T08:29:30;98101.03;;;35.02;46.41
13661;BME280;6903;49.480;11.102;2022-08-02T08:31:56;98108.38;;;35.26;45.20
13661;BME280;6903;49.480;11.102;2022-08-02T08:34:21;98108.41;;;35.11;45.77
13661;BME280;6903;49.480;11.102;2022-08-02T08:36:48;98114.16;;;35.35;46.06
13661;BME280;6903;49.480;11.102;2022-08-02T08:39:13;98107.22;;;35.88;44.56
13661;BME280;6903;49.480;11.102;2022-08-02T08:41:41;98109.50;;;35.45;45.22
13661;BME280;6903;49.480;11.102;2022-08-02T08:44:07;98107.31;;;35.32;45.42
13661;BME280;6903;49.480;11.102;2022-08-02T08:46:35;98107.84;;;34.94;45.23
13661;BME280;6903;49.480;11.102;2022-08-02T08:49:11;98105.84;;;34.40;45.89
13661;BME280;6903;49.480;11.102;2022-08-02T08:51:41;98101.50;;;33.87;46.21
13661;BME280;6903;49.480;11.102;2022-08-02T08:54:12;98104.06;;;33.20;47.71
13661;BME280;6903;49.480;11.102;2022-08-02T08:56:39;98097.81;;;33.25;48.31
13661;BME280;6903;49.480;11.102;2022-08-02T08:59:06;98097.56;;;32.94;48.28
13661;BME280;6903;49.480;11.102;2022-08-02T09:01:31;98109.22;;;33.48;47.95
13661;BME280;6903;49.480;11.102;2022-08-02T09:03:57;98106.91;;;34.38;46.45
13661;BME280;6903;49.480;11.102;2022-08-02T09:06:23;98094.72;;;34.96;45.06
13661;BME280;6903;49.480;11.102;2022-08-02T09:08:48;98111.41;;;35.50;44.03
13661;BME280;6903;49.480;11.102;2022-08-02T09:11:16;98108.59;;;35.80;42.81
13661;BME280;6903;49.480;11.102;2022-08-02T09:13:50;98113.47;;;36.08;41.66
13661;BME280;6903;49.480;11.102;2022-08-02T09:16:27;98118.13;;;36.08;40.76
13661;BME280;6903;49.480;11.102;2022-08-02T09:18:53;98124.19;;;36.00;40.67
13661;BME280;6903;49.480;11.102;2022-08-02T09:21:19;98109.81;;;35.39;40.91
13661;BME280;6903;49.480;11.102;2022-08-02T09:23:46;98110.84;;;34.78;41.61
13661;BME280;6903;49.480;11.102;2022-08-02T09:26:14;98116.84;;;34.80;41.07
13661;BME280;6903;49.480;11.102;2022-08-02T09:28:42;98104.63;;;34.15;42.36
13661;BME280;6903;49.480;11.102;2022-08-02T09:31:21;98100.59;;;34.38;42.06
13661;BME280;6903;49.480;11.102;2022-08-02T09:33:55;98108.25;;;34.31;42.27
13661;BME280;6903;49.480;11.102;2022-08-02T09:36:21;98099.28;;;34.41;42.11
13661;BME280;6903;49.480;11.102;2022-08-02T09:38:56;98104.28;;;34.84;41.71
13661;BME280;6903;49.480;11.102;2022-08-02T09:41:25;98103.19;;;35.20;40.50
13661;BME280;6903;49.480;11.102;2022-08-02T09:43:52;98104.53;;;35.52;40.07
13661;BME280;6903;49.480;11.102;2022-08-02T09:46:20;98096.56;;;35.61;38.69
13661;BME280;6903;49.480;11.102;2022-08-02T09:51:20;98098.78;;;35.54;38.10
13661;BME280;6903;49.480;11.102;2022-08-02T09:53:47;98088.66;;;35.29;37.82
13661;BME280;6903;49.480;11.102;2022-08-02T09:56:13;98082.31;;;35.49;38.20
13661;BME280;6903;49.480;11.102;2022-08-02T09:58:39;98081.50;;;36.37;35.97
13661;BME280;6903;49.480;11.102;2022-08-02T10:01:05;98076.09;;;36.07;35.31
13661;BME280;6903;49.480;11.102;2022-08-02T10:03:30;98072.06;;;35.95;35.28
13661;BME280;6903;49.480;11.102;2022-08-02T10:05:56;98075.63;;;36.49;34.66
13661;BME280;6903;49.480;11.102;2022-08-02T10:08:29;98081.56;;;37.05;33.92
13661;BME280;6903;49.480;11.102;2022-08-02T10:10:55;98062.25;;;35.63;33.13
13661;BME280;6903;49.480;11.102;2022-08-02T10:13:32;98055.50;;;34.76;33.81
13661;BME280;6903;49.480;11.102;2022-08-02T10:15:58;98055.19;;;34.57;34.11
13661;BME280;6903;49.480;11.102;2022-08-02T10:18:24;98059.84;;;35.32;33.67
13661;BME280;6903;49.480;11.102;2022-08-02T10:20:50;98054.25;;;35.82;33.19
13661;BME280;6903;49.480;11.102;2022-08-02T10:23:18;98052.88;;;36.82;33.01
13661;BME280;6903;49.480;11.102;2022-08-02T10:25:47;98056.03;;;37.56;32.29
13661;BME280;6903;49.480;11.102;2022-08-02T10:28:14;98060.78;;;37.98;32.22
13661;BME280;6903;49.480;11.102;2022-08-02T10:30:44;98069.19;;;38.49;30.54
13661;BME280;6903;49.480;11.102;2022-08-02T10:33:16;98059.00;;;38.68;30.33
13661;BME280;6903;49.480;11.102;2022-08-02T10:35:43;98068.06;;;38.87;29.26
13661;BME280;6903;49.480;11.102;2022-08-02T10:38:11;98063.91;;;38.52;28.66
13661;BME280;6903;49.480;11.102;2022-08-02T10:40:54;98064.69;;;38.58;28.20
13661;BME280;6903;49.480;11.102;2022-08-02T10:49:16;98054.19;;;36.51;30.51
13661;BME280;6903;49.480;11.102;2022-08-02T10:52:04;98050.03;;;36.10;31.19
13661;BME280;6903;49.480;11.102;2022-08-02T10:56:56;98041.59;;;36.45;31.00
13661;BME280;6903;49.480;11.102;2022-08-02T10:59:33;98035.41;;;37.30;29.93
13661;BME280;6903;49.480;11.102;2022-08-02T11:02:01;98041.47;;;37.79;29.59
13661;BME280;6903;49.480;11.102;2022-08-02T11:07:07;98038.56;;;37.14;30.29
13661;BME280;6903;49.480;11.102;2022-08-02T11:09:32;98032.09;;;37.80;29.92
13661;BME280;6903;49.480;11.102;2022-08-02T11:12:00;98028.03;;;38.57;28.99
13661;BME280;6903;49.480;11.102;2022-08-02T11:14:27;98026.66;;;38.73;28.28
13661;BME280;6903;49.480;11.102;2022-08-02T11:19:24;98018.03;;;38.24;27.78
13661;BME280;6903;49.480;11.102;2022-08-02T11:22:01;98009.59;;;37.73;28.78
13661;BME280;6903;49.480;11.102;2022-08-02T11:24:30;98005.06;;;38.24;28.99
13661;BME280;6903;49.480;11.102;2022-08-02T11:26:57;98010.63;;;38.75;28.63
13661;BME280;6903;49.480;11.102;2022-08-02T11:29:40;98022.03;;;39.19;28.55
13661;BME280;6903;49.480;11.102;2022-08-02T11:32:16;98007.91;;;39.34;27.69
13661;BME280;6903;49.480;11.102;2022-08-02T11:34:44;98012.88;;;39.05;27.34
13661;BME280;6903;49.480;11.102;2022-08-02T11:37:10;98004.31;;;38.38;27.63
13661;BME280;6903;49.480;11.102;2022-08-02T11:39:35;98006.03;;;37.73;28.25
13661;BME280;6903;49.480;11.102;2022-08-02T11:42:01;97999.50;;;37.64;28.42
13661;BME280;6903;49.480;11.102;2022-08-02T11:44:29;98003.97;;;37.08;29.30
13661;BME280;6903;49.480;11.102;2022-08-02T11:46:56;98006.97;;;37.11;29.72
13661;BME280;6903;49.480;11.102;2022-08-02T11:49:22;97996.66;;;37.27;29.79
13661;BME280;6903;49.480;11.102;2022-08-02T11:52:07;97997.13;;;37.57;28.95
13661;BME280;6903;49.480;11.102;2022-08-02T11:54:36;97986.59;;;38.06;29.01
13661;BME280;6903;49.480;11.102;2022-08-02T11:59:39;97985.94;;;38.84;27.67
13661;BME280;6903;49.480;11.102;2022-08-02T12:02:05;97981.44;;;38.88;27.77
13661;BME280;6903;49.480;11.102;2022-08-02T12:04:31;97985.59;;;39.04;27.23
13661;BME280;6903;49.480;11.102;2022-08-02T12:06:58;97978.75;;;38.69;27.34
13661;BME280;6903;49.480;11.102;2022-08-02T12:09:25;97987.06;;;38.32;27.79
13661;BME280;6903;49.480;11.102;2022-08-02T12:11:51;97984.22;;;38.18;28.18
13661;BME280;6903;49.480;11.102;2022-08-02T12:14:17;97974.13;;;37.72;28.25
13661;BME280;6903;49.480;11.102;2022-08-02T12:16:43;97976.34;;;37.46;28.55
13661;BME280;6903;49.480;11.102;2022-08-02T12:19:28;97975.88;;;37.11;28.89
13661;BME280;6903;49.480;11.102;2022-08-02T12:24:48;97966.53;;;36.83;28.73
13661;BME280;6903;49.480;11.102;2022-08-02T12:27:35;97967.56;;;36.92;29.19
13661;BME280;6903;49.480;11.102;2022-08-02T12:32:30;97956.81;;;37.24;28.83
13661;BME280;6903;49.480;11.102;2022-08-02T12:35:00;97958.03;;;37.55;28.86
13661;BME280;6903;49.480;11.102;2022-08-02T12:37:26;97958.28;;;37.82;27.98
13661;BME280;6903;49.480;11.102;2022-08-02T12:39:51;97956.63;;;37.81;27.78
13661;BME280;6903;49.480;11.102;2022-08-02T12:42:18;97952.94;;;38.09;27.34
13661;BME280;6903;49.480;11.102;2022-08-02T12:44:57;97951.28;;;37.48;27.10
13661;BME280;6903;49.480;11.102;2022-08-02T12:47:24;97947.94;;;37.51;27.51
13661;BME280;6903;49.480;11.102;2022-08-02T12:52:37;97942.44;;;38.30;26.96
13661;BME280;6903;49.480;11.102;2022-08-02T12:55:23;97948.72;;;38.17;26.45
13661;BME280;6903;49.480;11.102;2022-08-02T12:57:56;97943.56;;;37.92;26.51
13661;BME280;6903;49.480;11.102;2022-08-02T13:00:24;97947.75;;;37.66;27.03
13661;BME280;6903;49.480;11.102;2022-08-02T13:02:50;97947.56;;;37.99;27.23
13661;BME280;6903;49.480;11.102;2022-08-02T13:05:15;97942.41;;;38.11;26.64
13661;BME280;6903;49.480;11.102;2022-08-02T13:07:40;97947.47;;;37.86;26.50
13661;BME280;6903;49.480;11.102;2022-08-02T13:10:06;97945.06;;;37.61;26.71
13661;BME280;6903;49.480;11.102;2022-08-02T13:12:31;97945.56;;;38.05;27.09
13661;BME280;6903;49.480;11.102;2022-08-02T13:14:58;97949.44;;;38.60;26.58
13661;BME280;6903;49.480;11.102;2022-08-02T13:17:23;97939.38;;;38.82;26.02
13661;BME280;6903;49.480;11.102;2022-08-02T13:19:49;97943.88;;;38.92;25.76
13661;BME280;6903;49.480;11.102;2022-08-02T13:22:14;97942.91;;;39.01;26.06
13661;BME280;6903;49.480;11.102;2022-08-02T13:24:39;97930.78;;;38.84;25.64
13661;BME280;6903;49.480;11.102;2022-08-02T13:27:06;97929.63;;;38.02;26.22
13661;BME280;6903;49.480;11.102;2022-08-02T13:29:31;97931.56;;;38.20;26.66
13661;BME280;6903;49.480;11.102;2022-08-02T13:31:57;97927.56;;;38.63;25.76
13661;BME280;6903;49.480;11.102;2022-08-02T13:34:22;97932.81;;;38.78;25.71
13661;BME280;6903;49.480;11.102;2022-08-02T13:36:48;97932.34;;;38.90;25.64